createdAt,value
2018-12-05T00:01:55.234Z,2.99
2018-12-05T00:04:25.155Z,3.00
2018-12-05T00:06:55.188Z,2.98
2018-12-05T00:09:25.191Z,3.00
2018-12-05T00:11:55.853Z,2.97
2018-12-05T00:14:26.193Z,2.96
2018-12-05T00:16:56.584Z,2.91
2018-12-05T00:19:26.438Z,2.92
2018-12-05T00:21:56.407Z,2.91
2018-12-05T00:24:26.489Z,2.88
2018-12-05T00:26:56.393Z,2.90
2018-12-05T00:29:26.624Z,2.86
2018-12-05T00:31:56.377Z,2.87
2018-12-05T00:34:28.058Z,2.89
2018-12-05T00:36:58.138Z,2.89
2018-12-05T00:39:28.378Z,2.86
2018-12-05T00:41:58.439Z,2.87
2018-12-05T00:44:28.187Z,2.88
2018-12-05T00:46:58.332Z,2.89
2018-12-05T00:49:28.546Z,2.90
2018-12-05T00:51:58.508Z,2.89
2018-12-05T00:54:28.235Z,2.85
2018-12-05T00:56:58.226Z,2.88
2018-12-05T00:59:28.376Z,2.83
2018-12-05T01:01:58.539Z,2.85
2018-12-05T01:04:28.465Z,2.83
2018-12-05T01:06:58.660Z,2.78
2018-12-05T01:09:28.458Z,2.84
2018-12-05T01:11:58.280Z,2.79
2018-12-05T01:14:28.341Z,2.76
2018-12-05T01:16:58.360Z,2.79
2018-12-05T01:19:28.080Z,2.80
2018-12-05T01:21:58.232Z,2.80
2018-12-05T01:24:28.152Z,2.78
2018-12-05T01:26:58.166Z,2.80
2018-12-05T01:29:28.181Z,2.83
2018-12-05T01:31:58.150Z,2.80
2018-12-05T01:34:28.467Z,2.81
2018-12-05T01:36:59.117Z,2.79
2018-12-05T01:39:30.674Z,2.79
2018-12-05T01:42:00.388Z,2.79
2018-12-05T01:44:30.179Z,2.76
2018-12-05T01:47:00.124Z,2.74
2018-12-05T01:49:30.548Z,2.70
2018-12-05T01:52:00.536Z,2.69
2018-12-05T01:54:30.396Z,2.67
2018-12-05T01:57:00.232Z,2.66
2018-12-05T01:59:30.127Z,2.61
2018-12-05T02:02:00.127Z,2.60
2018-12-05T02:04:30.293Z,2.49
2018-12-05T02:07:00.141Z,2.50
2018-12-05T02:09:30.261Z,2.47
2018-12-05T02:12:00.837Z,2.48
2018-12-05T02:14:31.076Z,2.44
2018-12-05T02:17:01.300Z,2.44
2018-12-05T02:19:31.568Z,2.44
2018-12-05T02:22:01.566Z,2.47
2018-12-05T02:24:31.376Z,2.51
2018-12-05T02:27:01.520Z,2.49
2018-12-05T02:29:36.731Z,2.43
2018-12-05T02:32:06.675Z,2.46
2018-12-05T02:34:36.556Z,2.46
2018-12-05T02:37:06.534Z,2.44
2018-12-05T02:39:37.034Z,2.45
2018-12-05T02:42:07.281Z,2.47
2018-12-05T02:44:37.663Z,2.47
2018-12-05T02:47:07.558Z,2.46
2018-12-05T02:49:37.383Z,2.47
2018-12-05T02:52:07.219Z,2.47
2018-12-05T02:54:37.391Z,2.45
2018-12-05T02:57:07.430Z,2.47
2018-12-05T02:59:37.293Z,2.46
2018-12-05T03:02:07.398Z,2.44
2018-12-05T03:04:37.188Z,2.45
2018-12-05T03:07:07.441Z,2.44
2018-12-05T03:09:38.215Z,2.43
2018-12-05T03:12:08.120Z,2.40
2018-12-05T03:14:38.203Z,2.41
2018-12-05T03:17:08.106Z,2.40
2018-12-05T03:19:39.664Z,2.40
2018-12-05T03:22:09.384Z,2.36
2018-12-05T03:24:39.143Z,2.33
2018-12-05T03:27:09.912Z,2.28
2018-12-05T03:29:40.054Z,2.29
2018-12-05T03:32:10.334Z,2.30
2018-12-05T03:34:40.482Z,2.28
2018-12-05T03:37:10.400Z,2.29
2018-12-05T03:39:40.268Z,2.25
2018-12-05T03:42:10.398Z,2.29
2018-12-05T03:44:40.260Z,2.29
2018-12-05T03:47:10.161Z,2.25
2018-12-05T03:49:40.343Z,2.23
2018-12-05T03:52:11.488Z,2.25
2018-12-05T03:54:41.310Z,2.29
2018-12-05T03:57:11.138Z,2.30
2018-12-05T03:59:41.232Z,2.33
2018-12-05T04:02:11.180Z,2.35
2018-12-05T04:04:41.306Z,2.35
2018-12-05T04:07:11.186Z,2.37
2018-12-05T04:09:41.092Z,2.40
2018-12-05T04:12:11.207Z,2.38
2018-12-05T04:14:41.324Z,2.38
2018-12-05T04:17:11.403Z,2.40
2018-12-05T04:19:41.680Z,2.37
2018-12-05T04:22:11.472Z,2.37
2018-12-05T04:24:41.303Z,2.37
2018-12-05T04:27:11.144Z,2.36
2018-12-05T04:29:41.168Z,2.32
2018-12-05T04:32:11.215Z,2.30
2018-12-05T04:34:41.184Z,2.27
2018-12-05T04:37:11.209Z,2.27
2018-12-05T04:39:45.728Z,2.25
2018-12-05T04:42:15.690Z,2.23
2018-12-05T04:44:45.576Z,2.22
2018-12-05T04:47:15.405Z,2.20
2018-12-05T04:49:45.399Z,2.15
2018-12-05T04:52:15.548Z,2.15
2018-12-05T04:54:45.797Z,2.16
2018-12-05T04:57:16.141Z,2.15
2018-12-05T04:59:46.043Z,1.94
2018-12-05T05:02:15.818Z,2.15
2018-12-05T05:04:45.632Z,2.17
2018-12-05T05:07:15.440Z,2.17
2018-12-05T05:09:45.578Z,2.16
2018-12-05T05:12:15.260Z,2.16
2018-12-05T05:14:45.107Z,2.17
2018-12-05T05:17:16.244Z,2.16
2018-12-05T05:19:46.054Z,2.15
2018-12-05T05:22:16.256Z,2.12
2018-12-05T05:24:46.589Z,2.11
2018-12-05T05:27:16.377Z,2.07
2018-12-05T05:29:46.276Z,2.06
2018-12-05T05:32:16.271Z,2.00
2018-12-05T05:34:47.223Z,1.94
2018-12-05T05:37:17.174Z,2.02
2018-12-05T05:39:47.144Z,2.00
2018-12-05T05:42:17.229Z,2.00
2018-12-05T05:44:47.056Z,2.01
2018-12-05T05:47:17.587Z,2.02
2018-12-05T05:49:47.431Z,2.01
2018-12-05T05:52:17.238Z,2.00
2018-12-05T05:54:47.145Z,2.00
2018-12-05T05:57:17.444Z,1.98
2018-12-05T05:59:47.601Z,2.02
2018-12-05T06:02:17.380Z,2.03
2018-12-05T06:04:47.606Z,2.04
2018-12-05T06:07:17.438Z,2.05
2018-12-05T06:09:48.133Z,2.00
2018-12-05T06:12:18.384Z,1.92
2018-12-05T06:14:48.152Z,2.01
2018-12-05T06:17:18.840Z,2.03
2018-12-05T06:19:48.739Z,2.02
2018-12-05T06:22:18.566Z,2.04
2018-12-05T06:24:48.479Z,2.05
2018-12-05T06:27:18.849Z,2.05
2018-12-05T06:29:48.657Z,2.02
2018-12-05T06:32:18.439Z,2.04
2018-12-05T06:34:48.508Z,2.03
2018-12-05T06:37:19.525Z,2.03
2018-12-05T06:39:49.216Z,2.03
2018-12-05T06:42:19.220Z,2.01
2018-12-05T06:44:49.293Z,2.02
2018-12-05T06:47:19.349Z,2.04
2018-12-05T06:49:49.540Z,2.03
2018-12-05T06:52:19.246Z,1.98
2018-12-05T06:54:49.104Z,2.00
2018-12-05T06:57:19.155Z,1.99
2018-12-05T06:59:49.062Z,2.03
2018-12-05T07:02:19.315Z,2.05
2018-12-05T07:04:50.220Z,2.04
2018-12-05T07:07:20.349Z,2.06
2018-12-05T07:09:50.553Z,2.06
2018-12-05T07:12:20.400Z,2.10
2018-12-05T07:14:51.217Z,2.11
2018-12-05T07:17:21.314Z,2.10
2018-12-05T07:19:51.594Z,2.13
2018-12-05T07:22:21.356Z,2.18
2018-12-05T07:24:51.188Z,2.23
2018-12-05T07:27:22.599Z,2.30
2018-12-05T07:29:52.868Z,2.28
2018-12-05T07:32:22.879Z,2.33
2018-12-05T07:34:53.190Z,2.37
2018-12-05T07:37:23.555Z,2.43
2018-12-05T07:39:53.376Z,2.49
2018-12-05T07:42:23.550Z,2.53
2018-12-05T07:44:53.339Z,2.63
2018-12-05T07:47:23.080Z,2.67
2018-12-05T07:49:53.233Z,2.75
2018-12-05T07:52:23.436Z,2.82
2018-12-05T07:54:53.433Z,2.88
2018-12-05T07:57:23.608Z,2.92
2018-12-05T07:59:53.464Z,3.29
2018-12-05T08:02:23.397Z,3.48
2018-12-05T08:04:53.106Z,3.45
2018-12-05T08:07:23.252Z,3.48
2018-12-05T08:09:53.413Z,3.48
2018-12-05T08:12:23.348Z,3.49
2018-12-05T08:14:53.296Z,3.52
2018-12-05T08:17:23.167Z,3.59
2018-12-05T08:19:54.094Z,3.55
2018-12-05T08:22:24.480Z,3.56
2018-12-05T08:24:54.700Z,3.58
2018-12-05T08:27:24.878Z,3.68
2018-12-05T08:29:54.981Z,3.70
2018-12-05T08:32:26.137Z,3.77
2018-12-05T08:34:56.399Z,3.82
2018-12-05T08:37:26.245Z,3.84
2018-12-05T08:39:56.105Z,3.69
2018-12-05T08:42:26.212Z,3.95
2018-12-05T08:44:56.311Z,3.93
2018-12-05T08:47:26.352Z,4.00
2018-12-05T08:49:57.216Z,4.00
2018-12-05T08:52:27.206Z,4.09
2018-12-05T08:54:57.331Z,4.14
2018-12-05T08:57:27.444Z,4.16
2018-12-05T08:59:57.464Z,4.18
2018-12-05T09:02:27.441Z,4.26
2018-12-05T09:04:57.463Z,4.32
2018-12-05T09:07:28.654Z,4.40
2018-12-05T09:09:58.549Z,4.43
2018-12-05T09:12:28.373Z,4.44
2018-12-05T09:14:58.482Z,4.51
2018-12-05T09:17:28.257Z,4.59
2018-12-05T09:19:58.532Z,4.61
2018-12-05T09:22:28.550Z,4.66
2018-12-05T09:24:58.430Z,4.66
2018-12-05T09:27:28.250Z,4.69
2018-12-05T09:29:58.418Z,4.71
2018-12-05T09:32:28.432Z,4.70
2018-12-05T09:34:58.271Z,4.72
2018-12-05T09:37:28.083Z,4.73
2018-12-05T09:39:58.575Z,4.74
2018-12-05T09:42:28.324Z,4.70
2018-12-05T09:44:58.328Z,4.81
2018-12-05T09:47:28.132Z,4.85
2018-12-05T09:49:58.175Z,4.88
2018-12-05T09:52:28.155Z,4.93
2018-12-05T09:54:58.208Z,4.99
2018-12-05T09:57:29.728Z,5.02
2018-12-05T10:00:00.096Z,5.03
2018-12-05T10:02:30.494Z,5.10
2018-12-05T10:05:00.503Z,5.18
2018-12-05T10:07:30.887Z,5.21
2018-12-05T10:10:01.155Z,5.23
2018-12-05T10:12:31.353Z,5.29
2018-12-05T10:15:02.582Z,5.34
2018-12-05T10:17:32.388Z,5.38
2018-12-05T10:20:02.166Z,5.41
2018-12-05T10:22:32.385Z,5.40
2018-12-05T10:25:02.763Z,5.46
2018-12-05T10:27:32.899Z,5.51
2018-12-05T10:30:03.195Z,5.60
2018-12-05T10:32:34.740Z,5.68
2018-12-05T10:35:05.228Z,5.75
2018-12-05T10:37:35.384Z,5.82
2018-12-05T10:40:05.678Z,5.91
2018-12-05T10:42:35.615Z,5.93
2018-12-05T10:45:06.995Z,6.03
2018-12-05T10:47:37.478Z,6.19
2018-12-05T10:50:08.894Z,6.21
2018-12-05T10:52:38.616Z,6.23
2018-12-05T10:55:08.403Z,6.20
2018-12-05T10:57:38.234Z,6.26
2018-12-05T11:00:13.194Z,6.34
2018-12-05T11:02:48.253Z,6.43
2018-12-05T11:05:23.171Z,6.59
2018-12-05T11:07:58.371Z,6.67
2018-12-05T11:10:33.797Z,6.73
2018-12-05T11:13:08.583Z,6.86
2018-12-05T11:15:43.239Z,7.02
2018-12-05T11:18:18.318Z,7.14
2018-12-05T11:20:53.330Z,7.30
2018-12-05T11:23:28.467Z,7.01
2018-12-05T11:26:00.530Z,7.42
2018-12-05T11:28:30.629Z,7.57
2018-12-05T11:31:00.427Z,7.53
2018-12-05T11:33:30.554Z,7.53
2018-12-05T11:36:00.897Z,7.47
2018-12-05T11:38:30.987Z,7.45
2018-12-05T11:41:01.245Z,7.36
2018-12-05T11:43:31.295Z,7.35
2018-12-05T11:46:01.223Z,7.33
2018-12-05T11:48:31.208Z,7.36
2018-12-05T11:51:01.301Z,7.34
2018-12-05T11:53:32.706Z,7.28
2018-12-05T11:56:02.657Z,7.28
2018-12-05T11:58:32.911Z,7.34
2018-12-05T12:01:05.352Z,7.36
2018-12-05T12:03:35.328Z,7.41
2018-12-05T12:06:05.441Z,7.48
2018-12-05T12:08:35.634Z,7.53
2018-12-05T12:11:06.249Z,7.59
2018-12-05T12:13:36.164Z,7.58
2018-12-05T12:16:07.395Z,8.11
2018-12-05T12:18:42.702Z,9.02
2018-12-05T12:21:12.677Z,8.91
2018-12-05T12:23:42.846Z,8.33
2018-12-05T12:26:13.109Z,8.29
2018-12-05T12:28:43.288Z,8.21
2018-12-05T12:31:24.468Z,8.16
2018-12-05T12:33:54.563Z,8.02
2018-12-05T12:36:24.569Z,8.04
2018-12-05T12:38:55.601Z,8.06
2018-12-05T12:41:25.380Z,7.94
2018-12-05T12:43:55.254Z,8.01
2018-12-05T12:46:25.424Z,8.19
2018-12-05T12:48:55.239Z,8.33
2018-12-05T12:51:25.492Z,8.46
2018-12-05T12:53:55.250Z,8.61
2018-12-05T12:56:25.195Z,8.67
2018-12-05T12:58:56.130Z,8.89
2018-12-05T13:01:26.192Z,9.01
2018-12-05T13:03:56.469Z,8.84
2018-12-05T13:06:26.533Z,9.26
2018-12-05T13:08:56.388Z,9.31
2018-12-05T13:11:26.721Z,9.48
2018-12-05T13:13:56.517Z,9.28
2018-12-05T13:16:26.359Z,9.31
2018-12-05T13:18:56.320Z,9.39
2018-12-05T13:21:26.436Z,9.45
2018-12-05T13:23:56.424Z,9.54
2018-12-05T13:26:26.461Z,9.59
2018-12-05T13:28:56.331Z,9.60
2018-12-05T13:31:26.108Z,9.68
2018-12-05T13:33:56.086Z,9.60
2018-12-05T13:36:26.171Z,9.54
2018-12-05T13:38:56.322Z,9.55
2018-12-05T13:41:26.612Z,9.53
2018-12-05T13:43:58.336Z,9.56
2018-12-05T13:46:30.162Z,9.59
2018-12-05T13:49:00.516Z,9.71
2018-12-05T13:51:30.395Z,9.77
2018-12-05T13:54:00.375Z,9.84
2018-12-05T13:56:30.412Z,9.92
2018-12-05T13:59:00.465Z,9.93
2018-12-05T14:01:30.577Z,9.83
2018-12-05T14:04:00.392Z,9.83
2018-12-05T14:06:30.132Z,9.83
2018-12-05T14:09:01.381Z,9.78
2018-12-05T14:11:31.480Z,9.73
2018-12-05T14:14:01.451Z,9.64
2018-12-05T14:16:31.463Z,9.55
2018-12-05T14:19:01.506Z,9.45
2018-12-05T14:21:31.348Z,9.33
2018-12-05T14:24:01.146Z,9.23
2018-12-05T14:26:31.295Z,9.09
2018-12-05T14:29:01.386Z,8.97
2018-12-05T14:31:31.483Z,8.84
2018-12-05T14:34:01.288Z,8.70
2018-12-05T14:36:32.466Z,8.58
2018-12-05T14:39:02.645Z,8.43
2018-12-05T14:41:32.359Z,8.38
2018-12-05T14:44:02.457Z,8.24
2018-12-05T14:46:32.380Z,8.15
2018-12-05T14:49:02.430Z,8.08
2018-12-05T14:51:32.301Z,7.97
2018-12-05T14:54:02.107Z,7.88
2018-12-05T14:56:32.155Z,7.80
2018-12-05T14:59:02.208Z,7.74
2018-12-05T15:01:32.092Z,7.68
2018-12-05T15:04:02.332Z,7.63
2018-12-05T15:06:32.604Z,7.55
2018-12-05T15:09:04.660Z,7.50
2018-12-05T15:11:34.758Z,7.39
2018-12-05T15:14:05.317Z,7.29
2018-12-05T15:16:35.173Z,7.19
2018-12-05T15:19:05.346Z,6.65
2018-12-05T15:21:35.362Z,6.98
2018-12-05T15:24:05.408Z,6.89
2018-12-05T15:26:35.385Z,6.83
2018-12-05T15:29:05.148Z,6.74
2018-12-05T15:31:35.091Z,6.67
2018-12-05T15:34:05.078Z,6.54
2018-12-05T15:36:35.353Z,6.47
2018-12-05T15:39:06.735Z,6.38
2018-12-05T15:41:36.540Z,6.33
2018-12-05T15:44:16.107Z,6.26
2018-12-05T15:46:46.184Z,6.16
2018-12-05T15:49:16.317Z,6.05
2018-12-05T15:51:46.160Z,5.46
2018-12-05T15:54:16.269Z,5.89
2018-12-05T15:56:46.497Z,5.86
2018-12-05T15:59:16.375Z,5.77
2018-12-05T16:01:46.599Z,5.68
2018-12-05T16:04:17.477Z,5.62
2018-12-05T16:06:47.444Z,5.58
2018-12-05T16:09:17.435Z,5.56
2018-12-05T16:11:47.567Z,5.53
2018-12-05T16:14:17.648Z,5.50
2018-12-05T16:16:47.728Z,5.47
2018-12-05T16:19:18.433Z,5.44
2018-12-05T16:21:50.264Z,5.39
2018-12-05T16:24:20.168Z,5.34
2018-12-05T16:26:50.150Z,5.30
2018-12-05T16:29:20.283Z,5.26
2018-12-05T16:31:50.422Z,5.21
2018-12-05T16:34:20.146Z,5.14
2018-12-05T16:36:50.523Z,4.75
2018-12-05T16:39:21.573Z,4.98
2018-12-05T16:41:51.553Z,4.91
2018-12-05T16:44:21.358Z,4.82
2018-12-05T16:47:01.740Z,4.76
2018-12-05T16:49:31.480Z,4.73
2018-12-05T16:52:01.535Z,4.69
2018-12-05T16:54:31.464Z,4.67
2018-12-05T16:57:01.440Z,4.64
2018-12-05T16:59:32.614Z,4.52
2018-12-05T17:02:02.920Z,4.46
2018-12-05T17:04:32.736Z,4.40
2018-12-05T17:07:02.619Z,4.35
2018-12-05T17:09:32.408Z,4.30
2018-12-05T17:12:02.545Z,4.21
2018-12-05T17:14:32.419Z,4.15
2018-12-05T17:17:02.881Z,4.14
2018-12-05T17:19:33.044Z,4.14
2018-12-05T17:22:04.630Z,4.11
2018-12-05T17:24:35.193Z,4.09
2018-12-05T17:27:05.280Z,4.08
2018-12-05T17:29:35.408Z,4.08
2018-12-05T17:32:05.506Z,4.07
2018-12-05T17:34:36.546Z,4.03
2018-12-05T17:37:06.558Z,3.96
2018-12-05T17:39:37.917Z,3.94
2018-12-05T17:42:08.369Z,3.92
2018-12-05T17:44:38.335Z,3.86
2018-12-05T17:47:08.457Z,3.85
2018-12-05T17:49:38.305Z,3.90
2018-12-05T17:52:09.453Z,3.85
2018-12-05T17:54:39.513Z,3.77
2018-12-05T17:57:09.330Z,3.64
2018-12-05T17:59:39.237Z,3.61
2018-12-05T18:02:09.372Z,3.49
2018-12-05T18:04:39.443Z,3.45
2018-12-05T18:07:09.490Z,3.39
2018-12-05T18:09:39.451Z,3.37
2018-12-05T18:12:09.312Z,3.33
2018-12-05T18:14:39.248Z,3.34
2018-12-05T18:17:09.090Z,3.28
2018-12-05T18:19:39.600Z,3.22
2018-12-05T18:22:09.481Z,3.18
2018-12-05T18:24:39.610Z,3.13
2018-12-05T18:27:09.413Z,3.07
2018-12-05T18:29:39.384Z,3.01
2018-12-05T18:32:09.649Z,2.98
2018-12-05T18:34:39.666Z,2.94
2018-12-05T18:37:09.630Z,2.93
2018-12-05T18:39:40.431Z,2.92
2018-12-05T18:42:10.583Z,2.87
2018-12-05T18:44:40.445Z,2.84
2018-12-05T18:47:10.207Z,2.82
2018-12-05T18:49:40.353Z,2.78
2018-12-05T18:52:10.222Z,2.73
2018-12-05T18:54:40.896Z,2.67
2018-12-05T18:57:11.010Z,2.62
2018-12-05T18:59:41.332Z,2.59
2018-12-05T19:02:11.471Z,2.58
2018-12-05T19:04:41.857Z,2.57
2018-12-05T19:07:12.009Z,2.51
2018-12-05T19:09:42.181Z,2.50
2018-12-05T19:12:12.239Z,2.49
2018-12-05T19:14:46.194Z,2.48
2018-12-05T19:17:16.472Z,2.46
2018-12-05T19:19:46.435Z,2.42
2018-12-05T19:22:16.408Z,2.38
2018-12-05T19:24:46.817Z,2.33
2018-12-05T19:27:16.861Z,2.29
2018-12-05T19:29:46.649Z,2.25
2018-12-05T19:32:16.438Z,2.19
2018-12-05T19:34:46.947Z,2.17
2018-12-05T19:37:17.304Z,2.12
2018-12-05T19:39:47.609Z,2.13
2018-12-05T19:42:17.624Z,2.05
2018-12-05T19:44:47.601Z,2.01
2018-12-05T19:47:17.540Z,2.00
2018-12-05T19:49:47.449Z,2.02
2018-12-05T19:52:17.624Z,1.88
2018-12-05T19:54:47.628Z,1.72
2018-12-05T19:57:17.588Z,1.78
2018-12-05T19:59:47.846Z,1.89
2018-12-05T20:02:17.609Z,1.95
2018-12-05T20:04:47.471Z,1.90
2018-12-05T20:07:17.265Z,1.84
2018-12-05T20:09:47.311Z,1.78
2018-12-05T20:12:17.195Z,1.62
2018-12-05T20:14:47.273Z,1.69
2018-12-05T20:17:17.556Z,1.74
2018-12-05T20:19:47.373Z,1.77
2018-12-05T20:22:17.593Z,1.84
2018-12-05T20:24:48.352Z,1.82
2018-12-05T20:27:18.224Z,1.85
2018-12-05T20:29:48.348Z,1.81
2018-12-05T20:32:18.569Z,1.85
2018-12-05T20:34:48.395Z,1.92
2018-12-05T20:37:18.335Z,1.91
2018-12-05T20:39:49.652Z,1.85
2018-12-05T20:42:19.686Z,1.81
2018-12-05T20:44:49.501Z,1.79
2018-12-05T20:47:20.161Z,1.78
2018-12-05T20:50:31.674Z,1.76
2018-12-05T20:53:01.485Z,1.77
2018-12-05T20:55:31.731Z,1.73
2018-12-05T20:58:01.604Z,1.67
2018-12-05T21:00:31.681Z,1.66
2018-12-05T21:03:01.659Z,1.63
2018-12-05T21:05:31.643Z,1.58
2018-12-05T21:08:01.461Z,1.58
2018-12-05T21:10:31.369Z,1.49
2018-12-05T21:13:02.196Z,1.38
2018-12-05T21:15:31.959Z,1.41
2018-12-05T21:18:01.952Z,1.42
2018-12-05T21:20:32.716Z,1.49
2018-12-05T21:23:02.399Z,1.50
2018-12-05T21:25:32.075Z,1.48
2018-12-05T21:28:02.478Z,1.52
2018-12-05T21:30:32.496Z,1.54
2018-12-05T21:33:02.559Z,1.53
2018-12-05T21:35:32.527Z,1.45
2018-12-05T21:38:02.860Z,1.38
2018-12-05T21:40:33.185Z,1.29
2018-12-05T21:43:03.181Z,1.24
2018-12-05T21:45:33.300Z,1.18
2018-12-05T21:48:03.042Z,1.07
2018-12-05T21:50:33.200Z,1.11
2018-12-05T21:53:03.802Z,1.17
2018-12-05T21:55:34.124Z,1.21
2018-12-05T21:58:04.763Z,1.24
2018-12-05T22:00:34.411Z,1.21
2018-12-05T22:03:05.425Z,1.27
2018-12-05T22:05:35.621Z,1.27
2018-12-05T22:08:05.150Z,1.16
2018-12-05T22:10:36.901Z,1.15
2018-12-05T22:13:07.182Z,1.18
2018-12-05T22:15:37.517Z,1.19
2018-12-05T22:18:09.075Z,1.21
2018-12-05T22:20:39.190Z,1.24
2018-12-05T22:23:09.155Z,1.24
2018-12-05T22:25:38.855Z,1.23
2018-12-05T22:28:08.591Z,1.20
2018-12-05T22:30:38.979Z,1.20
2018-12-05T22:33:08.914Z,1.22
2018-12-05T22:35:38.859Z,1.21
2018-12-05T22:38:08.594Z,1.20
2018-12-05T22:40:38.676Z,1.20
2018-12-05T22:43:08.291Z,1.21
2018-12-05T22:45:39.578Z,1.18
2018-12-05T22:48:09.193Z,1.16
2018-12-05T22:50:38.930Z,1.16
2018-12-05T22:53:08.849Z,1.17
2018-12-05T22:55:38.439Z,1.16
2018-12-05T22:58:08.231Z,1.17
2018-12-05T23:00:42.288Z,1.15
2018-12-05T23:03:12.494Z,1.14
2018-12-05T23:05:42.796Z,1.12
2018-12-05T23:08:12.442Z,1.14
2018-12-05T23:10:42.404Z,1.08
2018-12-05T23:13:12.231Z,1.02
2018-12-05T23:15:42.282Z,0.81
2018-12-05T23:18:12.300Z,0.80
2018-12-05T23:20:42.172Z,0.79
2018-12-05T23:23:12.110Z,0.79
2018-12-05T23:25:41.921Z,0.81
2018-12-05T23:28:11.973Z,0.81
2018-12-05T23:30:41.909Z,0.80
2018-12-05T23:33:11.800Z,0.80
2018-12-05T23:35:42.281Z,0.80
2018-12-05T23:38:12.172Z,0.80
2018-12-05T23:40:41.998Z,0.80
2018-12-05T23:43:11.928Z,0.85
2018-12-05T23:45:41.818Z,0.88
2018-12-05T23:48:11.540Z,0.85
2018-12-05T23:50:41.105Z,0.87
2018-12-05T23:53:11.119Z,0.80
2018-12-05T23:55:40.978Z,0.74
2018-12-05T23:58:10.864Z,0.78
